Time;durP1;ratioP1;P1;durP2;ratioP2;P2;SDS_P1;SDS_P2;PMS_P1;PMS_P2;Temp;Humidity;BMP_temperature;BMP_pressure;BME280_temperature;BME280_humidity;BME280_pressure;Samples;Min_cycle;Max_cycle;Signal;HPM_P1;HPM_P2
2023/03/23 00:01:10;;;;;;;4.72;2.70;;;12.80;99.90;;;;;;5007184;28;20046;-60
2023/03/23 00:03:36;;;;;;;4.55;2.80;;;12.80;99.90;;;;;;5008127;28;20421;-60
2023/03/23 00:06:05;;;;;;;5.97;3.25;;;12.80;99.90;;;;;;5002138;28;20449;-60
2023/03/23 00:08:44;;;;;;;4.30;2.53;;;12.70;99.90;;;;;;5006786;28;20042;-60
2023/03/23 00:11:14;;;;;;;4.82;2.83;;;12.80;99.90;;;;;;5009826;28;20038;-60
2023/03/23 00:13:42;;;;;;;5.68;2.75;;;12.80;99.90;;;;;;5006543;28;20317;-60
2023/03/23 00:16:16;;;;;;;4.95;2.72;;;12.80;99.90;;;;;;5011409;28;20056;-60
2023/03/23 00:18:52;;;;;;;5.65;2.67;;;12.80;99.90;;;;;;5012623;28;20168;-60
2023/03/23 00:21:33;;;;;;;4.13;2.50;;;12.70;99.90;;;;;;5014382;28;20029;-60
2023/03/23 00:24:03;;;;;;;4.60;2.70;;;12.80;99.90;;;;;;5005898;28;20457;-60
2023/03/23 00:26:29;;;;;;;4.25;2.90;;;12.80;99.90;;;;;;5007657;28;20022;-60
2023/03/23 00:28:55;;;;;;;5.22;2.70;;;12.80;99.90;;;;;;5013222;28;20049;-61
2023/03/23 00:31:21;;;;;;;4.50;2.60;;;12.70;99.90;;;;;;5005864;28;22801;-60
2023/03/23 00:33:47;;;;;;;4.65;2.63;;;12.80;99.90;;;;;;5008427;28;20621;-60
2023/03/23 00:36:13;;;;;;;6.10;2.67;;;12.80;99.90;;;;;;5021571;28;20450;-60
2023/03/23 00:38:41;;;;;;;4.70;2.95;;;12.80;99.90;;;;;;5014666;28;20038;-60
2023/03/23 00:41:07;;;;;;;4.35;2.60;;;12.80;99.90;;;;;;5002313;28;20515;-60
2023/03/23 00:43:35;;;;;;;5.72;2.85;;;12.70;99.90;;;;;;5005116;28;20045;-60
2023/03/23 00:46:08;;;;;;;5.32;2.80;;;12.70;99.90;;;;;;4992892;28;20117;-60
2023/03/23 00:48:35;;;;;;;4.93;2.83;;;12.70;99.90;;;;;;5003143;28;20121;-60
2023/03/23 00:51:05;;;;;;;5.95;2.45;;;12.70;99.90;;;;;;5009342;28;20030;-60
2023/03/23 00:53:32;;;;;;;5.65;2.70;;;12.60;99.90;;;;;;5014097;28;20037;-60
2023/03/23 00:55:58;;;;;;;3.88;2.83;;;12.60;99.90;;;;;;5010125;28;20566;-60
2023/03/23 00:58:24;;;;;;;8.38;2.75;;;12.60;99.90;;;;;;5008710;28;20041;-60
2023/03/23 01:00:49;;;;;;;5.60;2.50;;;12.60;99.90;;;;;;5008362;28;20026;-60
2023/03/23 01:03:18;;;;;;;5.15;2.95;;;12.60;99.90;;;;;;5004681;28;20112;-60
2023/03/23 01:05:46;;;;;;;4.97;2.88;;;12.60;99.90;;;;;;5012267;28;20084;-60
2023/03/23 01:08:12;;;;;;;4.95;2.78;;;12.60;99.90;;;;;;5005696;28;20441;-60
2023/03/23 01:10:38;;;;;;;5.03;2.72;;;12.60;99.90;;;;;;5015445;28;20026;-60
2023/03/23 01:13:05;;;;;;;3.63;2.60;;;12.60;99.90;;;;;;5012061;28;20514;-60
2023/03/23 01:15:31;;;;;;;3.78;2.60;;;12.50;99.90;;;;;;5014110;28;20033;-61
2023/03/23 01:17:57;;;;;;;5.00;2.80;;;12.60;99.90;;;;;;5007090;28;20469;-60
2023/03/23 01:20:23;;;;;;;6.05;2.42;;;12.50;99.90;;;;;;5005083;28;20684;-60
2023/03/23 01:22:48;;;;;;;6.82;3.03;;;12.50;99.90;;;;;;5013488;28;20115;-60
2023/03/23 01:25:14;;;;;;;6.18;3.10;;;12.60;99.90;;;;;;5006290;28;20029;-60
2023/03/23 01:27:40;;;;;;;6.72;3.00;;;12.50;99.90;;;;;;5006185;28;20028;-60
2023/03/23 01:30:08;;;;;;;5.47;2.80;;;12.50;99.90;;;;;;5014740;28;20033;-60
2023/03/23 01:32:34;;;;;;;5.07;2.75;;;12.50;99.90;;;;;;5015499;28;20040;-61
2023/03/23 01:34:59;;;;;;;4.38;2.70;;;12.50;99.90;;;;;;5006064;28;20507;-60
2023/03/23 01:37:26;;;;;;;5.85;3.20;;;12.50;99.90;;;;;;5011207;28;20034;-60
2023/03/23 01:39:55;;;;;;;5.55;2.80;;;12.60;99.90;;;;;;5014402;28;20046;-60
2023/03/23 01:42:33;;;;;;;6.63;2.63;;;12.60;99.90;;;;;;5010826;28;25503;-60
2023/03/23 01:45:24;;;;;;;5.25;2.75;;;12.60;99.90;;;;;;5014728;28;20069;-60
2023/03/23 01:47:55;;;;;;;2.97;2.53;;;12.60;99.90;;;;;;5011994;28;20049;-60
2023/03/23 01:50:24;;;;;;;5.10;2.90;;;12.50;99.90;;;;;;5007278;28;20132;-60
2023/03/23 01:52:53;;;;;;;3.90;2.50;;;12.60;99.90;;;;;;5004867;28;20037;-61
2023/03/23 01:55:19;;;;;;;5.57;2.83;;;12.60;99.90;;;;;;5003445;28;20037;-61
2023/03/23 01:57:45;;;;;;;4.70;3.00;;;12.60;99.90;;;;;;5011228;28;20034;-60
2023/03/23 02:00:14;;;;;;;5.88;2.92;;;12.60;99.90;;;;;;5010235;28;20037;-60
2023/03/23 02:02:46;;;;;;;5.15;2.70;;;12.60;99.90;;;;;;5015016;28;20487;-60
2023/03/23 02:05:17;;;;;;;6.32;3.20;;;12.60;99.90;;;;;;5014626;28;20064;-61
2023/03/23 02:07:44;;;;;;;4.75;2.80;;;12.60;99.90;;;;;;5008147;28;20038;-60
2023/03/23 02:10:09;;;;;;;4.97;2.83;;;12.60;99.90;;;;;;5018705;28;20033;-60
2023/03/23 02:12:35;;;;;;;5.78;2.95;;;12.60;99.90;;;;;;5018494;28;20052;-60
2023/03/23 02:15:02;;;;;;;4.70;2.97;;;12.50;99.90;;;;;;5013758;28;20037;-60
2023/03/23 02:17:39;;;;;;;5.32;2.97;;;12.50;99.90;;;;;;5006257;28;20042;-60
2023/03/23 02:20:52;;;;;;;4.65;2.70;;;12.50;99.90;;;;;;5008634;28;20049;-60
2023/03/23 02:23:29;;;;;;;5.38;2.92;;;12.50;99.90;;;;;;5002231;28;20780;-60
2023/03/23 02:26:33;;;;;;;3.88;2.70;;;12.40;99.90;;;;;;5006756;28;20479;-60
2023/03/23 02:29:06;;;;;;;3.63;2.70;;;12.50;99.90;;;;;;5005320;28;20026;-60
2023/03/23 02:32:02;;;;;;;5.28;2.90;;;12.40;99.90;;;;;;5004298;28;20120;-60
2023/03/23 02:34:28;;;;;;;6.40;2.90;;;12.40;99.90;;;;;;5008132;28;20129;-61
2023/03/23 02:37:19;;;;;;;6.28;3.15;;;12.40;99.90;;;;;;5010144;28;20365;-60
2023/03/23 02:39:50;;;;;;;7.20;3.10;;;12.30;99.90;;;;;;5007950;28;20132;-60
2023/03/23 02:42:20;;;;;;;4.97;2.83;;;12.30;99.90;;;;;;5015464;28;20030;-60
2023/03/23 02:44:48;;;;;;;5.30;2.92;;;12.30;99.90;;;;;;5014540;28;20050;-60
2023/03/23 02:47:21;;;;;;;4.07;2.90;;;12.20;99.90;;;;;;5020081;28;20128;-61
2023/03/23 02:49:48;;;;;;;;;;;12.20;99.90;;;;;;5009767;28;20106;-61
2023/03/23 02:52:24;;;;;;;5.47;2.85;;;12.20;99.90;;;;;;5013702;28;19924;-60
2023/03/23 02:54:52;;;;;;;3.80;2.75;;;12.20;99.90;;;;;;5011093;28;20103;-61
2023/03/23 02:57:18;;;;;;;6.10;3.05;;;12.20;99.90;;;;;;5007655;28;20057;-61
2023/03/23 02:59:44;;;;;;;3.70;2.78;;;12.20;99.90;;;;;;5011474;28;20042;-60
2023/03/23 03:02:16;;;;;;;5.05;2.92;;;12.20;99.90;;;;;;5014331;28;20052;-60
2023/03/23 03:04:55;;;;;;;4.88;2.85;;;12.10;99.90;;;;;;5009104;28;20033;-61
2023/03/23 03:07:49;;;;;;;4.70;3.50;;;12.10;99.90;;;;;;5017240;28;20041;-60
2023/03/23 03:10:23;;;;;;;7.47;3.15;;;12.20;99.90;;;;;;4993212;28;20034;-61
2023/03/23 03:13:12;;;;;;;3.65;2.83;;;12.10;99.90;;;;;;5015899;28;20041;-60
2023/03/23 03:15:51;;;;;;;3.88;3.03;;;12.10;99.90;;;;;;5012256;28;20042;-61
2023/03/23 03:18:37;;;;;;;4.53;2.67;;;12.10;99.90;;;;;;5007841;28;20030;-60
2023/03/23 03:21:07;;;;;;;5.15;3.30;;;12.10;99.90;;;;;;5022937;28;20034;-61
2023/03/23 03:23:34;;;;;;;5.60;2.90;;;12.10;99.90;;;;;;5009939;28;20042;-60
2023/03/23 03:26:04;;;;;;;6.57;2.83;;;12.10;99.90;;;;;;5011803;28;20521;-61
2023/03/23 03:28:31;;;;;;;3.50;2.70;;;12.10;99.90;;;;;;5022621;28;20469;-61
2023/03/23 03:31:00;;;;;;;4.68;2.83;;;12.20;99.90;;;;;;5011550;28;20612;-61
2023/03/23 03:33:27;;;;;;;3.30;2.50;;;12.10;99.90;;;;;;5008068;28;20034;-61
2023/03/23 03:35:59;;;;;;;3.65;2.70;;;12.10;99.90;;;;;;5020118;28;20092;-60
2023/03/23 03:38:25;;;;;;;3.92;2.40;;;12.10;99.90;;;;;;5024390;28;20043;-61
2023/03/23 03:40:52;;;;;;;6.90;2.47;;;12.10;99.90;;;;;;5013758;28;20080;-60
2023/03/23 03:43:17;;;;;;;4.78;2.80;;;12.10;99.90;;;;;;5009486;28;20050;-60
2023/03/23 03:45:44;;;;;;;2.88;2.30;;;12.10;99.90;;;;;;5012113;28;20441;-61
2023/03/23 03:48:10;;;;;;;3.03;2.15;;;12.20;99.90;;;;;;5018474;28;20022;-60
2023/03/23 03:50:36;;;;;;;3.97;2.28;;;12.10;99.90;;;;;;5014964;28;20069;-61
2023/03/23 03:53:01;;;;;;;4.20;2.53;;;12.10;99.90;;;;;;5008510;28;20037;-62
2023/03/23 03:55:27;;;;;;;3.33;2.30;;;12.20;99.90;;;;;;5016428;28;20038;-61
2023/03/23 03:57:57;;;;;;;2.97;2.25;;;12.20;99.90;;;;;;5005479;28;20428;-60
2023/03/23 04:00:23;;;;;;;3.55;2.38;;;12.20;99.90;;;;;;5012616;28;20132;-61
2023/03/23 04:02:54;;;;;;;3.45;2.40;;;12.30;99.90;;;;;;5004558;28;20034;-61
2023/03/23 04:05:21;;;;;;;2.80;2.20;;;12.30;99.90;;;;;;5014488;28;20401;-61
2023/03/23 04:07:51;;;;;;;4.55;2.50;;;12.30;99.90;;;;;;5011604;28;20042;-60
2023/03/23 04:10:19;;;;;;;5.03;2.42;;;12.30;99.90;;;;;;5012661;28;20030;-60
2023/03/23 04:12:45;;;;;;;3.47;2.17;;;12.40;99.90;;;;;;5007088;28;20061;-61
2023/03/23 04:15:11;;;;;;;3.63;2.05;;;12.50;99.90;;;;;;5007986;28;20560;-60
2023/03/23 04:17:37;;;;;;;4.32;2.30;;;12.50;99.90;;;;;;5001958;28;20124;-60
2023/03/23 04:20:12;;;;;;;5.28;2.80;;;12.60;99.90;;;;;;5013304;28;20068;-61
2023/03/23 04:22:38;;;;;;;3.45;2.50;;;12.60;99.90;;;;;;5009720;28;20128;-60
2023/03/23 04:25:06;;;;;;;4.10;2.53;;;12.50;99.90;;;;;;5007533;28;20564;-61
2023/03/23 04:27:32;;;;;;;5.60;2.80;;;12.60;99.90;;;;;;5013411;28;20488;-60
2023/03/23 04:29:58;;;;;;;3.78;2.30;;;12.60;99.90;;;;;;5008660;28;20037;-61
2023/03/23 04:32:28;;;;;;;3.35;2.40;;;12.60;99.90;;;;;;5005674;28;20042;-60
2023/03/23 04:34:55;;;;;;;4.22;2.30;;;12.70;99.90;;;;;;5005508;28;20456;-60
2023/03/23 04:37:25;;;;;;;4.40;2.30;;;12.60;99.90;;;;;;5013546;28;20041;-60
2023/03/23 04:39:59;;;;;;;5.22;2.58;;;12.60;99.90;;;;;;5010978;28;20029;-61
2023/03/23 04:42:29;;;;;;;4.85;2.88;;;12.60;99.90;;;;;;5004563;28;20030;-60
2023/03/23 04:44:59;;;;;;;4.90;2.42;;;12.60;99.90;;;;;;4998494;28;20042;-60
2023/03/23 04:47:29;;;;;;;4.32;2.53;;;12.60;99.90;;;;;;5013316;28;20125;-60
2023/03/23 04:49:56;;;;;;;4.85;2.60;;;12.60;99.90;;;;;;5012289;28;20319;-60
2023/03/23 04:52:21;;;;;;;3.90;2.65;;;12.60;99.90;;;;;;5013911;28;20552;-61
2023/03/23 04:54:47;;;;;;;5.40;2.60;;;12.60;99.90;;;;;;5007382;28;20061;-61
2023/03/23 04:57:15;;;;;;;4.50;2.28;;;12.50;99.90;;;;;;5009247;28;20061;-61
2023/03/23 04:59:41;;;;;;;4.72;2.63;;;12.50;99.90;;;;;;5014422;28;20034;-60
2023/03/23 05:02:07;;;;;;;3.15;2.28;;;12.60;99.90;;;;;;5013439;28;20042;-61
2023/03/23 05:04:33;;;;;;;4.60;2.42;;;12.60;99.90;;;;;;5013770;28;20036;-61
2023/03/23 05:06:58;;;;;;;3.60;2.63;;;12.70;99.90;;;;;;5003708;28;20045;-60
2023/03/23 05:09:24;;;;;;;3.55;2.50;;;12.60;99.90;;;;;;5015887;28;20038;-60
2023/03/23 05:11:50;;;;;;;4.82;2.45;;;12.60;99.90;;;;;;5007408;28;20057;-60
2023/03/23 05:14:16;;;;;;;3.30;2.45;;;12.60;99.90;;;;;;5001831;28;20033;-60
2023/03/23 05:16:41;;;;;;;2.72;2.22;;;12.60;99.90;;;;;;5004464;28;20038;-61
2023/03/23 05:19:07;;;;;;;3.70;2.50;;;12.70;99.90;;;;;;5006665;28;20424;-60
2023/03/23 05:21:34;;;;;;;3.25;2.35;;;12.70;99.90;;;;;;5005173;28;20291;-61
2023/03/23 05:24:00;;;;;;;4.47;2.53;;;12.70;99.90;;;;;;5010032;28;20025;-60
2023/03/23 05:26:29;;;;;;;3.33;2.47;;;12.60;99.90;;;;;;5011112;28;20079;-61
2023/03/23 05:28:55;;;;;;;4.40;2.75;;;12.60;99.90;;;;;;5020378;28;20506;-61
2023/03/23 05:31:22;;;;;;;4.10;2.75;;;12.60;99.90;;;;;;4999489;28;20034;-61
2023/03/23 05:33:48;;;;;;;4.30;2.67;;;12.60;99.90;;;;;;5001811;28;20576;-61
2023/03/23 05:36:14;;;;;;;4.30;2.55;;;12.70;99.90;;;;;;5001635;28;20042;-61
2023/03/23 05:38:44;;;;;;;5.72;2.80;;;12.70;99.90;;;;;;5011581;28;20036;-60
2023/03/23 05:41:14;;;;;;;4.28;2.50;;;12.70;99.90;;;;;;5000754;28;20030;-61
2023/03/23 05:43:40;;;;;;;6.03;2.50;;;12.60;99.90;;;;;;5013291;28;20041;-61
2023/03/23 05:46:06;;;;;;;6.40;2.88;;;12.60;99.90;;;;;;5008632;28;20049;-60
2023/03/23 05:48:33;;;;;;;4.03;2.60;;;12.70;99.90;;;;;;5010575;28;20509;-61
2023/03/23 05:50:58;;;;;;;6.28;2.65;;;12.60;99.90;;;;;;5010683;28;20026;-60
2023/03/23 05:53:25;;;;;;;5.53;2.58;;;12.70;99.90;;;;;;5007291;28;20109;-61
2023/03/23 05:55:51;;;;;;;2.63;2.22;;;12.70;99.90;;;;;;5011100;28;20034;-61
2023/03/23 05:58:16;;;;;;;5.35;2.55;;;12.70;99.90;;;;;;5006620;28;20108;-60
2023/03/23 06:00:42;;;;;;;3.22;2.25;;;12.50;99.90;;;;;;5008700;28;20088;-61
2023/03/23 06:03:08;;;;;;;5.32;2.70;;;12.60;99.90;;;;;;5016518;28;20443;-60
2023/03/23 06:05:34;;;;;;;4.85;2.65;;;12.50;99.90;;;;;;5021086;28;20065;-60
2023/03/23 06:07:59;;;;;;;7.93;2.70;;;12.60;99.90;;;;;;5009920;28;20124;-63
2023/03/23 06:10:26;;;;;;;5.28;2.50;;;12.60;99.90;;;;;;5001605;28;20049;-63
2023/03/23 06:12:52;;;;;;;4.32;2.55;;;12.60;99.90;;;;;;5005016;28;20050;-63
2023/03/23 06:15:18;;;;;;;7.75;2.60;;;12.70;99.90;;;;;;5006321;28;20040;-64
2023/03/23 06:17:44;;;;;;;5.47;2.58;;;12.70;99.90;;;;;;5003754;28;20044;-63
2023/03/23 06:20:11;;;;;;;4.00;2.40;;;12.60;99.90;;;;;;4996925;28;20390;-63
2023/03/23 06:22:37;;;;;;;7.70;2.97;;;12.60;99.90;;;;;;5006161;28;20057;-63
2023/03/23 06:25:04;;;;;;;4.88;2.70;;;12.60;99.90;;;;;;5006940;28;20034;-63
2023/03/23 06:27:30;;;;;;;5.85;2.75;;;12.60;99.90;;;;;;4998334;28;20038;-63
2023/03/23 06:29:56;;;;;;;3.88;2.42;;;12.60;99.90;;;;;;5012291;28;20041;-63
2023/03/23 06:32:22;;;;;;;5.80;2.58;;;12.60;99.90;;;;;;5007622;28;20041;-63
2023/03/23 06:34:48;;;;;;;7.10;2.67;;;12.60;99.90;;;;;;5004949;28;20133;-64
2023/03/23 06:37:13;;;;;;;4.93;2.28;;;12.60;99.90;;;;;;5003564;28;20136;-64
2023/03/23 06:39:39;;;;;;;6.47;2.60;;;12.60;99.90;;;;;;5009343;28;20125;-63
2023/03/23 06:42:10;;;;;;;9.40;2.80;;;12.60;99.90;;;;;;5004544;28;20038;-63
2023/03/23 06:44:36;;;;;;;5.82;2.67;;;12.70;99.90;;;;;;5003783;28;20439;-64
2023/03/23 06:47:02;;;;;;;5.20;2.78;;;12.70;99.90;;;;;;5003900;28;20125;-63
2023/03/23 06:49:27;;;;;;;6.45;2.67;;;12.80;99.90;;;;;;5000237;28;20038;-63
2023/03/23 06:51:53;;;;;;;3.95;2.42;;;12.80;99.90;;;;;;5001284;28;20448;-63
2023/03/23 06:54:19;;;;;;;4.15;2.20;;;12.80;99.90;;;;;;5000676;28;20520;-63
2023/03/23 06:56:45;;;;;;;6.40;2.40;;;12.80;99.90;;;;;;5004189;28;20038;-63
2023/03/23 06:59:11;;;;;;;4.70;2.10;;;12.90;99.90;;;;;;5001222;28;20152;-63
2023/03/23 07:01:36;;;;;;;6.25;2.50;;;12.90;99.90;;;;;;5003348;28;20033;-64
2023/03/23 07:04:02;;;;;;;7.25;2.38;;;12.90;99.90;;;;;;5000374;28;20061;-63
2023/03/23 07:06:28;;;;;;;4.20;2.08;;;12.80;99.90;;;;;;5005457;28;20034;-64
2023/03/23 07:08:53;;;;;;;4.90;2.10;;;12.90;99.90;;;;;;5013721;28;20043;-64
2023/03/23 07:11:19;;;;;;;5.00;2.08;;;12.90;99.90;;;;;;5006672;28;20052;-63
2023/03/23 07:13:46;;;;;;;6.25;2.60;;;12.90;99.90;;;;;;5009177;28;20161;-63
2023/03/23 07:16:11;;;;;;;5.28;2.20;;;13.00;99.90;;;;;;5009709;28;20404;-64
2023/03/23 07:18:37;;;;;;;5.15;2.47;;;13.20;99.90;;;;;;5012342;28;20025;-63
2023/03/23 07:21:02;;;;;;;6.35;2.35;;;13.10;99.90;;;;;;5015179;28;20449;-63
2023/03/23 07:23:30;;;;;;;5.55;2.20;;;13.10;99.90;;;;;;5012131;28;20425;-64
2023/03/23 07:25:56;;;;;;;7.43;2.40;;;13.10;99.90;;;;;;5011218;28;20069;-63
2023/03/23 07:28:22;;;;;;;6.05;2.03;;;13.10;99.90;;;;;;4996389;28;20477;-63
2023/03/23 07:30:48;;;;;;;5.45;2.10;;;13.10;99.90;;;;;;5005087;28;20034;-62
2023/03/23 07:33:13;;;;;;;5.93;2.10;;;13.00;99.90;;;;;;5004441;28;20057;-63
2023/03/23 07:35:39;;;;;;;6.85;2.15;;;13.00;99.90;;;;;;5008654;28;20034;-62
2023/03/23 07:38:06;;;;;;;7.55;1.90;;;13.00;99.90;;;;;;5008664;28;20037;-62
2023/03/23 07:40:35;;;;;;;5.25;1.70;;;13.10;99.90;;;;;;5000014;28;20049;-63
2023/03/23 07:43:02;;;;;;;3.95;2.08;;;13.10;99.90;;;;;;4999675;28;20469;-62
2023/03/23 07:45:29;;;;;;;4.45;1.70;;;13.10;99.90;;;;;;5003879;28;20045;-62
2023/03/23 07:47:55;;;;;;;5.35;1.92;;;13.00;99.90;;;;;;5000242;28;20068;-62
2023/03/23 07:50:24;;;;;;;5.47;1.70;;;13.00;99.90;;;;;;5004847;28;20568;-62
2023/03/23 07:52:57;;;;;;;4.38;1.88;;;13.10;99.90;;;;;;5006756;28;20528;-63
2023/03/23 07:55:24;;;;;;;;;;;13.00;99.90;;;;;;5007990;28;20477;-62
2023/03/23 07:57:50;;;;;;;6.65;1.80;;;13.10;99.90;;;;;;5006943;28;20356;-62
2023/03/23 08:00:22;;;;;;;4.28;1.60;;;13.00;99.90;;;;;;5013916;28;20058;-63
2023/03/23 08:02:56;;;;;;;4.50;1.70;;;13.10;99.90;;;;;;5004095;28;20061;-62
2023/03/23 08:05:23;;;;;;;4.97;1.70;;;13.10;99.90;;;;;;5005724;28;20089;-62
2023/03/23 08:07:49;;;;;;;3.90;1.52;;;13.10;99.90;;;;;;5006331;28;20144;-62
2023/03/23 08:10:17;;;;;;;8.23;2.15;;;13.20;99.90;;;;;;5004405;28;20043;-63
2023/03/23 08:12:43;;;;;;;2.70;1.50;;;13.30;99.90;;;;;;5008395;28;20048;-63
2023/03/23 08:15:17;;;;;;;4.13;1.60;;;13.30;99.90;;;;;;5011875;28;20385;-62
2023/03/23 08:17:43;;;;;;;;;;;13.20;99.90;;;;;;5006512;28;20104;-62
2023/03/23 08:20:12;;;;;;;4.85;1.58;;;13.30;99.90;;;;;;4998318;28;19913;-62
2023/03/23 08:22:44;;;;;;;4.50;1.75;;;13.40;99.90;;;;;;5004895;28;20096;-63
2023/03/23 08:25:11;;;;;;;7.20;1.80;;;13.40;99.90;;;;;;5008744;28;20038;-62
2023/03/23 08:27:40;;;;;;;6.15;1.95;;;13.50;99.90;;;;;;5001970;28;20405;-62
2023/03/23 08:30:07;;;;;;;4.00;1.50;;;13.50;99.90;;;;;;4995351;28;20115;-63
2023/03/23 08:32:33;;;;;;;5.63;1.70;;;13.60;99.90;;;;;;5001956;28;20502;-63
2023/03/23 08:34:58;;;;;;;7.65;1.95;;;13.70;99.90;;;;;;5005234;28;20100;-62
2023/03/23 08:37:24;;;;;;;6.43;2.00;;;13.70;99.90;;;;;;5010242;28;20042;-62
2023/03/23 08:39:54;;;;;;;5.65;1.92;;;13.80;99.90;;;;;;5008187;28;20038;-62
2023/03/23 08:42:20;;;;;;;5.05;1.90;;;13.80;99.90;;;;;;5009053;28;20168;-61
2023/03/23 08:48:08;;;;;;;7.60;1.88;;;13.80;99.90;;;;;;4986296;28;20045;-62
2023/03/23 08:50:35;;;;;;;3.58;1.67;;;13.80;99.90;;;;;;4998989;28;20160;-61
2023/03/23 08:53:01;;;;;;;7.18;1.83;;;13.80;99.90;;;;;;5003209;28;20121;-61
2023/03/23 08:55:28;;;;;;;6.68;2.30;;;13.70;99.90;;;;;;5006104;28;20038;-62
2023/03/23 08:57:53;;;;;;;5.00;1.70;;;13.70;99.90;;;;;;5000834;28;20068;-62
2023/03/23 09:00:23;;;;;;;5.35;1.90;;;13.60;99.90;;;;;;5007827;28;20483;-61
2023/03/23 09:02:51;;;;;;;6.05;2.00;;;13.60;99.90;;;;;;4995295;28;20037;-61
2023/03/23 09:05:19;;;;;;;6.95;2.00;;;13.60;99.90;;;;;;5006157;28;20055;-61
2023/03/23 09:07:48;;;;;;;5.60;1.88;;;13.60;99.90;;;;;;4996557;28;20034;-61
2023/03/23 09:10:14;;;;;;;5.07;1.70;;;13.50;99.90;;;;;;5011324;28;20026;-62
2023/03/23 09:12:40;;;;;;;4.50;1.58;;;13.60;99.90;;;;;;5003574;28;20049;-62
2023/03/23 09:15:08;;;;;;;9.30;2.15;;;13.60;99.90;;;;;;5008792;28;20129;-62
2023/03/23 09:17:39;;;;;;;5.60;1.83;;;13.50;99.90;;;;;;5003853;28;20111;-61
2023/03/23 09:20:13;;;;;;;5.22;1.73;;;13.40;99.90;;;;;;5005293;28;20516;-62
2023/03/23 09:22:42;;;;;;;7.68;2.08;;;13.40;99.90;;;;;;5005692;28;20651;-62
2023/03/23 09:25:08;;;;;;;7.25;2.03;;;13.50;99.90;;;;;;5012795;28;20057;-62
2023/03/23 09:27:36;;;;;;;4.32;1.50;;;13.50;99.90;;;;;;5004441;28;20033;-62
2023/03/23 09:30:05;;;;;;;6.85;1.85;;;13.50;99.90;;;;;;5002144;28;20038;-60
2023/03/23 09:32:34;;;;;;;10.07;1.60;;;13.00;99.90;;;;;;5001841;28;20185;-60
2023/03/23 09:35:01;;;;;;;4.90;1.25;;;12.50;99.90;;;;;;5010547;28;20174;-61
2023/03/23 09:37:27;;;;;;;5.47;1.48;;;12.50;99.90;;;;;;5009905;28;20037;-61
2023/03/23 09:39:53;;;;;;;4.93;1.30;;;12.40;99.90;;;;;;5013781;28;20044;-60
2023/03/23 09:42:46;;;;;;;5.95;1.50;;;12.40;99.90;;;;;;4993465;28;20034;-60
2023/03/23 09:45:17;;;;;;;3.85;1.35;;;12.10;99.90;;;;;;4997526;28;20051;-60
2023/03/23 09:47:55;;;;;;;6.45;1.42;;;12.00;99.90;;;;;;5004254;28;20038;-60
2023/03/23 09:50:26;;;;;;;6.40;1.60;;;11.90;99.90;;;;;;4998645;28;20527;-60
2023/03/23 09:52:57;;;;;;;2.92;1.40;;;11.80;99.90;;;;;;4987114;28;20076;-61
2023/03/23 09:55:23;;;;;;;6.35;1.50;;;12.00;99.90;;;;;;5008077;28;20128;-61
2023/03/23 09:58:16;;;;;;;5.93;1.73;;;12.10;99.90;;;;;;5001817;28;20046;-61
2023/03/23 10:01:02;;;;;;;4.40;1.02;;;12.10;99.90;;;;;;5004704;28;20042;-61
2023/03/23 10:03:37;;;;;;;3.58;1.27;;;12.10;99.90;;;;;;5004091;28;20034;-61
2023/03/23 10:06:02;;;;;;;4.13;1.40;;;12.10;99.90;;;;;;4997108;28;20041;-60
2023/03/23 10:08:32;;;;;;;7.60;2.10;;;12.10;99.90;;;;;;5010435;28;20026;-61
2023/03/23 10:11:23;;;;;;;4.90;1.58;;;12.10;99.90;;;;;;5016718;28;20037;-61
2023/03/23 10:14:10;;;;;;;3.90;1.30;;;12.10;99.90;;;;;;5013311;28;20215;-61
2023/03/23 10:16:49;;;;;;;3.25;1.33;;;12.20;99.90;;;;;;5008315;28;20042;-61
2023/03/23 10:19:38;;;;;;;4.57;1.48;;;12.40;99.90;;;;;;5011848;28;20033;-61
2023/03/23 10:22:08;;;;;;;6.80;1.77;;;12.20;99.90;;;;;;4994998;28;20034;-61
2023/03/23 10:24:41;;;;;;;4.40;1.88;;;12.10;99.90;;;;;;5008193;28;20033;-61
2023/03/23 10:27:26;;;;;;;5.68;1.70;;;12.10;99.90;;;;;;4992746;28;20041;-61
2023/03/23 10:30:38;;;;;;;5.43;1.80;;;12.00;99.90;;;;;;4994965;28;20527;-61
2023/03/23 10:33:22;;;;;;;4.78;2.60;;;12.10;99.90;;;;;;4989980;28;20041;-60
2023/03/23 10:36:10;;;;;;;5.50;1.90;;;12.10;99.90;;;;;;5013800;28;20037;-61
2023/03/23 10:39:09;;;;;;;5.22;2.00;;;11.90;99.90;;;;;;5003873;28;20034;-61
2023/03/23 10:41:35;;;;;;;4.80;1.63;;;11.90;99.90;;;;;;4978926;28;20022;-61
2023/03/23 10:44:15;;;;;;;2.58;1.40;;;11.80;99.90;;;;;;5011433;28;20040;-61
2023/03/23 10:46:48;;;;;;;3.30;1.35;;;11.90;99.90;;;;;;5005111;28;20096;-61
2023/03/23 10:49:20;;;;;;;4.38;1.42;;;11.90;99.90;;;;;;4999519;28;20049;-61
2023/03/23 10:51:53;;;;;;;5.78;1.20;;;11.80;99.90;;;;;;5013663;28;20386;-61
2023/03/23 10:54:40;;;;;;;2.50;0.80;;;11.90;99.90;;;;;;5001995;28;20078;-62
2023/03/23 10:57:31;;;;;;;3.85;0.80;;;11.80;99.90;;;;;;4996041;28;20057;-61
2023/03/23 11:00:21;;;;;;;3.40;1.10;;;11.90;99.90;;;;;;5007362;28;20034;-61
2023/03/23 11:03:04;;;;;;;4.65;1.00;;;12.00;99.90;;;;;;5005044;28;20426;-61
2023/03/23 11:05:57;;;;;;;4.80;1.40;;;12.00;99.90;;;;;;5008784;28;20060;-61
2023/03/23 11:08:25;;;;;;;2.70;0.93;;;12.20;99.90;;;;;;5003731;28;20033;-61
2023/03/23 11:11:09;;;;;;;4.93;1.40;;;12.10;99.90;;;;;;5012441;28;20478;-61
2023/03/23 11:13:48;;;;;;;4.97;1.10;;;12.30;99.90;;;;;;5007367;28;20434;-61
2023/03/23 11:16:30;;;;;;;3.42;1.00;;;12.20;99.90;;;;;;4998830;28;20450;-61
2023/03/23 11:18:58;;;;;;;3.85;1.42;;;12.20;99.90;;;;;;5005656;28;20263;-62
2023/03/23 11:21:27;;;;;;;2.25;1.10;;;12.40;99.90;;;;;;5007576;28;20464;-61
2023/03/23 11:23:57;;;;;;;3.58;1.00;;;12.20;99.90;;;;;;5009281;28;20407;-62
2023/03/23 11:26:28;;;;;;;3.78;1.10;;;12.40;99.90;;;;;;5001836;28;20046;-61
2023/03/23 11:28:58;;;;;;;5.25;1.20;;;12.40;99.90;;;;;;5004763;28;20119;-62
2023/03/23 11:31:31;;;;;;;2.45;1.00;;;12.50;99.90;;;;;;5015139;28;20551;-62
2023/03/23 11:34:01;;;;;;;3.47;1.23;;;12.50;99.90;;;;;;5002587;28;20034;-62
2023/03/23 11:36:33;;;;;;;3.15;1.33;;;12.50;99.90;;;;;;5007244;28;20026;-62
2023/03/23 11:38:59;;;;;;;4.82;1.20;;;12.70;99.90;;;;;;5011829;28;20030;-61
2023/03/23 11:41:29;;;;;;;5.03;1.55;;;12.60;99.90;;;;;;5006195;28;20038;-61
2023/03/23 11:43:54;;;;;;;4.05;1.30;;;12.60;99.90;;;;;;5003988;28;20380;-61
2023/03/23 11:46:34;;;;;;;3.92;2.05;;;12.70;99.90;;;;;;5004175;28;20033;-62
2023/03/23 11:49:09;;;;;;;3.35;1.75;;;12.60;99.90;;;;;;4989960;28;20059;-62
2023/03/23 11:51:59;;;;;;;4.82;1.90;;;12.60;99.90;;;;;;5005209;28;20033;-61
2023/03/23 11:54:46;;;;;;;5.15;2.15;;;12.80;99.90;;;;;;5005946;28;20508;-61
2023/03/23 11:57:13;;;;;;;4.50;2.00;;;12.60;99.90;;;;;;4999045;28;20038;-61
2023/03/23 11:59:39;;;;;;;4.97;1.70;;;12.50;99.90;;;;;;5006767;28;20484;-61
2023/03/23 12:02:27;;;;;;;4.68;2.20;;;12.50;99.90;;;;;;5006887;28;20043;-61
2023/03/23 12:05:29;;;;;;;3.25;1.50;;;12.60;99.90;;;;;;5009560;28;20041;-62
2023/03/23 12:08:11;;;;;;;3.08;1.45;;;12.60;99.90;;;;;;5005986;28;20026;-61
2023/03/23 12:11:03;;;;;;;3.28;1.70;;;12.40;99.90;;;;;;5009008;28;20026;-61
2023/03/23 12:13:41;;;;;;;5.60;1.67;;;12.60;99.90;;;;;;5001550;28;20133;-61
2023/03/23 12:16:23;;;;;;;3.65;1.70;;;12.70;99.90;;;;;;5003997;28;20034;-59
2023/03/23 12:19:11;;;;;;;3.40;1.65;;;12.70;99.90;;;;;;5006784;28;20053;-61
2023/03/23 12:22:01;;;;;;;4.07;1.40;;;12.70;99.90;;;;;;5004218;28;20038;-61
2023/03/23 12:24:59;;;;;;;2.83;1.55;;;12.60;99.90;;;;;;5007420;28;20458;-61
2023/03/23 12:27:58;;;;;;;3.75;1.60;;;12.80;99.90;;;;;;5006817;28;20110;-61
2023/03/23 12:30:55;;;;;;;3.80;1.75;;;12.80;99.90;;;;;;5004511;28;20096;-61
2023/03/23 12:33:20;;;;;;;2.97;1.70;;;13.00;99.90;;;;;;5002104;28;20614;-61
2023/03/23 12:36:22;;;;;;;3.70;2.00;;;13.00;99.90;;;;;;4990773;28;20049;-61
2023/03/23 12:38:57;;;;;;;3.17;1.90;;;13.10;99.90;;;;;;4992263;28;20450;-61
2023/03/23 12:41:42;;;;;;;3.58;1.90;;;;;;;;;;5010319;28;20034;-61
2023/03/23 12:44:14;;;;;;;4.18;2.08;;;13.40;99.90;;;;;;5002049;28;20504;-61
2023/03/23 12:47:13;;;;;;;4.00;1.80;;;13.20;99.90;;;;;;5013312;28;20069;-61
2023/03/23 12:49:43;;;;;;;3.65;2.05;;;13.20;99.90;;;;;;5000456;28;20477;-61
2023/03/23 12:52:47;;;;;;;4.47;1.92;;;13.30;99.90;;;;;;5006876;28;20034;-61
2023/03/23 12:55:44;;;;;;;4.85;2.45;;;13.40;99.90;;;;;;5005538;28;20030;-62
2023/03/23 12:58:14;;;;;;;5.05;2.42;;;13.40;99.90;;;;;;4970166;28;20052;-61
2023/03/23 13:01:06;;;;;;;4.70;2.40;;;13.60;99.90;;;;;;4985359;28;20057;-61
2023/03/23 13:04:05;;;;;;;5.20;2.47;;;13.60;99.90;;;;;;5004356;28;20064;-61
2023/03/23 13:06:40;;;;;;;6.82;2.58;;;13.60;99.90;;;;;;4999485;28;20484;-62
2023/03/23 13:09:16;;;;;;;6.35;2.60;;;13.60;99.90;;;;;;4999680;28;20056;-61
2023/03/23 13:11:43;;;;;;;4.20;2.25;;;13.60;99.90;;;;;;5001587;28;20513;-61
2023/03/23 13:14:26;;;;;;;4.35;2.10;;;13.70;99.90;;;;;;4988183;28;20054;-61